Time;durP1;ratioP1;P1;durP2;ratioP2;P2;SDS_P1;SDS_P2;PMS_P1;PMS_P2;Temp;Humidity;BMP_temperature;BMP_pressure;BME280_temperature;BME280_humidity;BME280_pressure;Samples;Min_cycle;Max_cycle;Signal;HPM_P1;HPM_P2
2023/03/16 00:00:24;;;;;;;0.20;0.20;;;5.70;97.60;;;;;;5101729;28;20039;-79
2023/03/16 00:02:49;;;;;;;0.10;0.10;;;5.70;97.70;;;;;;5098483;28;20052;-79
2023/03/16 00:05:15;;;;;;;0.52;0.52;;;5.70;98.00;;;;;;5089188;28;20759;-79
2023/03/16 00:07:42;;;;;;;0.10;0.10;;;5.70;98.20;;;;;;5090148;28;20065;-79
2023/03/16 00:10:11;;;;;;;0.10;0.10;;;5.60;98.20;;;;;;5092961;28;20080;-79
2023/03/16 00:12:37;;;;;;;0.20;0.20;;;5.60;98.20;;;;;;5091689;28;20121;-79
2023/03/16 00:15:03;;;;;;;0.20;0.20;;;5.60;98.50;;;;;;5098305;28;20437;-78
2023/03/16 00:17:29;;;;;;;0.15;0.15;;;5.50;98.80;;;;;;5098315;28;20755;-79
2023/03/16 00:19:56;;;;;;;0.13;0.13;;;5.50;99.10;;;;;;5096140;28;20071;-79
2023/03/16 00:22:27;;;;;;;0.30;0.30;;;5.50;99.20;;;;;;5083882;28;20036;-77
2023/03/16 00:24:54;;;;;;;0.10;0.10;;;5.40;99.50;;;;;;5091345;28;20031;-76
2023/03/16 00:27:21;;;;;;;0.20;0.20;;;5.40;99.70;;;;;;5094399;28;20042;-78
2023/03/16 00:29:49;;;;;;;0.20;0.20;;;5.30;99.90;;;;;;5070345;28;20063;-77
2023/03/16 00:32:17;;;;;;;0.80;0.77;;;5.30;99.90;;;;;;5087335;28;20032;-77
2023/03/16 00:34:46;;;;;;;0.10;0.10;;;5.40;99.90;;;;;;5089112;28;20032;-77
2023/03/16 00:37:15;;;;;;;0.77;0.43;;;5.30;99.90;;;;;;5092163;28;20030;-77
2023/03/16 00:39:42;;;;;;;0.30;0.30;;;5.30;99.90;;;;;;5088826;28;20781;-78
2023/03/16 00:42:09;;;;;;;0.35;0.35;;;5.30;99.90;;;;;;5098189;28;20085;-78
2023/03/16 00:44:36;;;;;;;0.10;0.10;;;5.30;99.90;;;;;;5093723;28;20142;-78
2023/03/16 00:47:07;;;;;;;1.40;0.73;;;5.30;99.90;;;;;;5089744;28;20064;-77
2023/03/16 00:49:34;;;;;;;0.47;0.47;;;5.30;99.90;;;;;;5090479;28;20535;-79
2023/03/16 00:52:05;;;;;;;0.10;0.10;;;5.30;99.90;;;;;;5088731;28;20028;-76
2023/03/16 00:54:31;;;;;;;0.10;0.10;;;5.30;99.90;;;;;;5100416;28;20102;-78
2023/03/16 00:57:01;;;;;;;0.10;0.10;;;5.30;99.90;;;;;;5095387;28;20039;-77
2023/03/16 00:59:28;;;;;;;0.40;0.40;;;5.30;99.90;;;;;;5095655;28;20032;-78
2023/03/16 01:01:54;;;;;;;0.13;0.13;;;5.20;99.90;;;;;;5097374;28;20111;-77
2023/03/16 01:04:20;;;;;;;0.20;0.20;;;5.20;99.90;;;;;;5077076;28;20056;-78
2023/03/16 01:06:46;;;;;;;0.10;0.10;;;5.20;99.90;;;;;;5080592;28;20031;-77
2023/03/16 01:09:13;;;;;;;0.22;0.22;;;5.20;99.90;;;;;;5097830;28;20039;-77
2023/03/16 01:11:41;;;;;;;0.10;0.10;;;5.10;99.90;;;;;;5080846;28;20027;-81
2023/03/16 01:14:08;;;;;;;0.10;0.10;;;5.10;99.90;;;;;;5101155;28;20061;-79
2023/03/16 01:16:34;;;;;;;0.10;0.10;;;5.00;99.90;;;;;;5096470;28;20683;-80
2023/03/16 01:19:00;;;;;;;0.10;0.10;;;5.00;99.90;;;;;;5099051;28;20027;-79
2023/03/16 01:21:26;;;;;;;0.10;0.10;;;5.00;99.90;;;;;;5099980;28;20048;-77
2023/03/16 01:23:52;;;;;;;0.10;0.10;;;5.00;99.90;;;;;;5090082;28;20023;-77
2023/03/16 01:26:19;;;;;;;0.10;0.10;;;5.00;99.90;;;;;;5102532;28;20522;-78
2023/03/16 01:28:45;;;;;;;;;;;5.00;99.90;;;;;;5098672;28;20039;-78
2023/03/16 01:31:13;;;;;;;0.10;0.10;;;5.00;99.90;;;;;;5089921;28;19953;-78
2023/03/16 01:33:40;;;;;;;0.20;0.20;;;5.00;99.90;;;;;;5098279;28;20060;-78
2023/03/16 01:36:13;;;;;;;0.30;0.30;;;4.90;99.90;;;;;;5080843;28;20028;-79
2023/03/16 01:38:39;;;;;;;0.00;0.00;;;4.90;99.90;;;;;;5095462;28;20149;-80
2023/03/16 01:41:05;;;;;;;0.10;0.10;;;4.90;99.90;;;;;;5085068;28;20032;-78
2023/03/16 01:43:33;;;;;;;0.10;0.10;;;4.90;99.90;;;;;;5095324;28;21089;-79
2023/03/16 01:46:04;;;;;;;0.60;0.35;;;4.80;99.90;;;;;;5088360;28;20520;-80
2023/03/16 01:48:41;;;;;;;0.10;0.10;;;4.70;99.90;;;;;;5073029;28;20075;-78
2023/03/16 01:51:13;;;;;;;0.30;0.30;;;4.70;99.90;;;;;;5098572;28;20509;-78
2023/03/16 01:53:43;;;;;;;0.10;0.10;;;4.80;99.90;;;;;;5103887;28;20126;-81
2023/03/16 01:56:11;;;;;;;0.30;0.30;;;4.70;99.90;;;;;;5093317;28;20034;-80
2023/03/16 01:58:38;;;;;;;1.27;1.17;;;4.80;99.90;;;;;;5090979;28;20031;-78
2023/03/16 02:01:04;;;;;;;;;;;4.80;99.90;;;;;;5091318;28;20024;-82
2023/03/16 02:03:33;;;;;;;0.10;0.10;;;4.70;99.90;;;;;;5095422;28;19926;-79
2023/03/16 02:06:14;;;;;;;0.10;0.10;;;4.70;99.90;;;;;;5105088;28;20024;-82
2023/03/16 02:08:42;;;;;;;0.30;0.30;;;4.70;99.90;;;;;;5096275;28;20046;-79
2023/03/16 02:11:08;;;;;;;0.10;0.10;;;4.70;99.90;;;;;;5094508;28;20032;-78
2023/03/16 02:13:37;;;;;;;0.10;0.10;;;4.60;99.90;;;;;;5097518;28;20089;-81
2023/03/16 02:16:06;;;;;;;0.10;0.10;;;4.70;99.90;;;;;;5102102;28;20082;-78
2023/03/16 02:18:32;;;;;;;4.20;0.52;;;4.60;99.90;;;;;;5089073;28;20723;-79
2023/03/16 02:21:07;;;;;;;0.40;0.40;;;4.50;99.90;;;;;;5098063;28;20527;-79
2023/03/16 02:23:33;;;;;;;0.10;0.10;;;4.60;99.90;;;;;;5103072;28;20289;-80
2023/03/16 02:26:08;;;;;;;0.17;0.17;;;4.60;99.90;;;;;;5101817;28;20031;-80
2023/03/16 02:29:02;;;;;;;0.05;0.05;;;4.60;99.90;;;;;;5096536;28;20039;-78
2023/03/16 02:31:28;;;;;;;0.10;0.10;;;4.60;99.90;;;;;;5087495;28;20039;-79
2023/03/16 02:33:55;;;;;;;1.88;0.95;;;4.60;99.90;;;;;;5091799;28;20028;-79
2023/03/16 02:36:20;;;;;;;;;;;4.60;99.90;;;;;;5094551;28;20131;-78
2023/03/16 02:38:46;;;;;;;0.10;0.10;;;4.50;99.90;;;;;;5091739;28;19912;-79
2023/03/16 02:41:19;;;;;;;0.10;0.10;;;4.50;99.90;;;;;;5101336;28;20111;-78
2023/03/16 02:44:23;;;;;;;0.10;0.10;;;4.50;99.90;;;;;;5097371;28;20032;-79
2023/03/16 02:46:51;;;;;;;0.10;0.10;;;4.60;99.90;;;;;;5021313;28;20140;-81
2023/03/16 02:49:24;;;;;;;0.10;0.10;;;4.50;99.90;;;;;;5081093;28;20066;-78
2023/03/16 02:51:50;;;;;;;0.10;0.10;;;4.40;99.90;;;;;;5093193;28;20758;-80
2023/03/16 02:54:16;;;;;;;0.38;0.38;;;4.50;99.90;;;;;;5093110;28;20027;-79
2023/03/16 02:56:42;;;;;;;1.05;0.90;;;4.40;99.90;;;;;;5085818;28;20019;-78
2023/03/16 02:59:07;;;;;;;0.10;0.10;;;4.40;99.90;;;;;;5075744;28;20031;-78
2023/03/16 03:01:36;;;;;;;0.50;0.50;;;4.40;99.90;;;;;;5082206;28;20039;-80
2023/03/16 03:04:03;;;;;;;0.20;0.20;;;4.30;99.90;;;;;;5095589;27;20589;-78
2023/03/16 03:06:29;;;;;;;;;;;4.30;99.90;;;;;;5080503;28;20581;-79
2023/03/16 03:08:55;;;;;;;5.03;1.60;;;4.30;99.90;;;;;;5098049;28;19927;-79
2023/03/16 03:11:20;;;;;;;0.17;0.17;;;4.30;99.90;;;;;;5091902;28;20445;-78
2023/03/16 03:13:46;;;;;;;0.10;0.10;;;4.40;99.90;;;;;;5098992;27;20028;-78
2023/03/16 03:16:13;;;;;;;0.10;0.10;;;4.20;99.90;;;;;;5095256;28;20046;-80
2023/03/16 03:18:38;;;;;;;0.07;0.07;;;4.20;99.90;;;;;;5066348;28;20032;-78
2023/03/16 03:21:04;;;;;;;0.10;0.10;;;4.20;99.90;;;;;;5085621;28;20028;-81
2023/03/16 03:23:30;;;;;;;0.10;0.10;;;4.20;99.90;;;;;;5085846;28;20130;-79
2023/03/16 03:25:57;;;;;;;0.10;0.10;;;4.20;99.90;;;;;;5098072;28;20130;-78
2023/03/16 03:28:23;;;;;;;0.17;0.17;;;4.20;99.90;;;;;;5094089;28;20063;-78
2023/03/16 03:30:49;;;;;;;0.43;0.43;;;4.20;99.90;;;;;;5098124;28;20664;-79
2023/03/16 03:33:14;;;;;;;2.08;0.45;;;4.00;99.90;;;;;;5102909;28;20031;-81
2023/03/16 03:35:40;;;;;;;0.10;0.10;;;4.10;99.90;;;;;;5097344;28;20047;-80
2023/03/16 03:38:07;;;;;;;0.10;0.10;;;4.10;99.90;;;;;;5078208;28;20106;-79
2023/03/16 03:40:33;;;;;;;0.05;0.05;;;4.00;99.90;;;;;;5089476;28;20028;-79
2023/03/16 03:43:00;;;;;;;0.23;0.23;;;4.00;99.90;;;;;;5092669;28;21088;-81
2023/03/16 03:45:26;;;;;;;0.28;0.28;;;4.00;99.90;;;;;;5091691;28;20020;-79
2023/03/16 03:47:51;;;;;;;0.10;0.10;;;4.10;99.90;;;;;;5070611;28;20708;-79
2023/03/16 03:50:17;;;;;;;2.55;0.77;;;4.10;99.90;;;;;;5102458;28;20047;-79
2023/03/16 03:52:43;;;;;;;0.10;0.10;;;4.10;99.90;;;;;;5072664;28;20437;-82
2023/03/16 03:55:09;;;;;;;0.10;0.10;;;4.10;99.90;;;;;;5090796;28;20056;-82
2023/03/16 03:57:35;;;;;;;0.10;0.10;;;4.00;99.90;;;;;;5072525;28;20073;-78
2023/03/16 04:00:01;;;;;;;1.43;1.33;;;3.90;99.90;;;;;;5102550;28;20126;-79
2023/03/16 04:02:27;;;;;;;0.10;0.10;;;3.90;99.90;;;;;;5101101;28;20115;-75
2023/03/16 04:04:53;;;;;;;0.20;0.20;;;4.00;99.90;;;;;;5100435;28;20044;-77
2023/03/16 04:07:18;;;;;;;0.10;0.10;;;4.00;99.90;;;;;;5101276;28;21061;-77
2023/03/16 04:09:44;;;;;;;0.13;0.13;;;3.80;99.90;;;;;;5097133;28;20458;-80
2023/03/16 04:12:10;;;;;;;0.10;0.10;;;3.80;99.90;;;;;;5098852;28;20036;-79
2023/03/16 04:14:36;;;;;;;0.10;0.10;;;3.70;99.90;;;;;;5102490;28;20377;-80
2023/03/16 04:17:03;;;;;;;0.10;0.10;;;3.80;99.90;;;;;;5099835;28;20085;-78
2023/03/16 04:19:29;;;;;;;0.10;0.10;;;3.80;99.90;;;;;;5102739;28;20080;-80
2023/03/16 04:21:55;;;;;;;0.13;0.13;;;3.80;99.90;;;;;;5098456;28;20110;-78
2023/03/16 04:24:21;;;;;;;0.30;0.30;;;3.90;99.90;;;;;;5089229;28;20157;-78
2023/03/16 04:26:47;;;;;;;0.10;0.10;;;3.80;99.90;;;;;;5102382;28;20023;-78
2023/03/16 04:29:16;;;;;;;0.10;0.10;;;3.80;99.90;;;;;;5079822;28;20588;-77
2023/03/16 04:31:43;;;;;;;0.10;0.10;;;3.80;99.90;;;;;;5085525;28;20085;-79
2023/03/16 04:34:10;;;;;;;0.08;0.08;;;3.80;99.90;;;;;;5090051;27;20028;-80
2023/03/16 04:36:37;;;;;;;;;;;3.80;99.90;;;;;;5078993;28;20035;-79
2023/03/16 04:39:04;;;;;;;0.20;0.20;;;3.80;99.90;;;;;;5101094;28;19907;-79
2023/03/16 04:41:30;;;;;;;0.10;0.10;;;3.80;99.90;;;;;;5066147;28;20036;-80
2023/03/16 04:43:56;;;;;;;0.10;0.10;;;3.80;99.90;;;;;;5083824;28;20566;-80
2023/03/16 04:46:23;;;;;;;1.67;1.55;;;3.80;99.90;;;;;;5083801;28;20086;-78
2023/03/16 04:48:48;;;;;;;0.08;0.08;;;3.70;99.90;;;;;;5078222;28;20043;-80
2023/03/16 04:51:14;;;;;;;0.43;0.43;;;3.80;99.90;;;;;;5096365;28;20028;-80
2023/03/16 04:53:40;;;;;;;0.08;0.08;;;3.80;99.90;;;;;;5082184;28;20035;-79
2023/03/16 04:56:07;;;;;;;0.90;0.90;;;3.70;99.90;;;;;;5088709;28;20022;-78
2023/03/16 04:58:32;;;;;;;0.20;0.20;;;3.70;99.90;;;;;;5095121;28;20085;-77
2023/03/16 05:00:58;;;;;;;0.25;0.25;;;3.70;99.90;;;;;;5093404;28;20816;-79
2023/03/16 05:03:24;;;;;;;0.10;0.10;;;3.60;99.90;;;;;;5072193;28;20059;-81
2023/03/16 05:05:50;;;;;;;0.43;0.17;;;3.70;99.90;;;;;;5079511;28;20039;-80
2023/03/16 05:08:16;;;;;;;0.10;0.10;;;3.70;99.90;;;;;;5098824;28;20048;-83
2023/03/16 05:10:43;;;;;;;0.10;0.10;;;3.60;99.90;;;;;;5098940;28;20034;-79
2023/03/16 05:13:09;;;;;;;0.10;0.10;;;3.60;99.90;;;;;;5099618;28;20040;-82
2023/03/16 05:15:34;;;;;;;0.30;0.30;;;3.70;99.90;;;;;;5101552;28;20023;-79
2023/03/16 05:18:00;;;;;;;0.10;0.10;;;3.60;99.90;;;;;;5098779;28;20027;-80
2023/03/16 05:20:26;;;;;;;0.00;0.00;;;3.50;99.90;;;;;;5096257;28;20027;-81
2023/03/16 05:22:52;;;;;;;0.10;0.10;;;3.60;99.90;;;;;;5089270;28;20476;-79
2023/03/16 05:25:18;;;;;;;0.20;0.20;;;3.70;99.90;;;;;;5095325;28;20028;-80
2023/03/16 05:27:45;;;;;;;0.25;0.25;;;3.60;99.90;;;;;;5100633;28;20067;-80
2023/03/16 05:30:12;;;;;;;;;;;3.60;99.90;;;;;;5097354;28;20028;-79
2023/03/16 05:32:39;;;;;;;17.90;0.98;;;3.60;99.90;;;;;;5100852;28;20354;-78
2023/03/16 05:35:06;;;;;;;1.45;0.65;;;3.60;99.90;;;;;;5079729;28;20109;-79
2023/03/16 05:37:31;;;;;;;0.08;0.08;;;3.50;99.90;;;;;;5102418;28;20034;-78
2023/03/16 05:39:57;;;;;;;0.10;0.10;;;3.50;99.90;;;;;;5098021;28;20023;-79
2023/03/16 05:42:25;;;;;;;0.10;0.10;;;3.50;99.90;;;;;;5094336;28;20078;-82
2023/03/16 05:44:52;;;;;;;0.28;0.28;;;3.40;99.90;;;;;;5098058;28;20084;-80
2023/03/16 05:47:18;;;;;;;0.10;0.10;;;3.40;99.90;;;;;;5100050;28;20046;-80
2023/03/16 05:49:44;;;;;;;0.10;0.10;;;3.40;99.90;;;;;;5092403;28;20036;-80
2023/03/16 05:52:10;;;;;;;1.15;0.35;;;3.60;99.90;;;;;;5092992;28;20086;-80
2023/03/16 05:54:36;;;;;;;0.10;0.10;;;3.60;99.90;;;;;;5097276;28;20028;-82
2023/03/16 05:57:01;;;;;;;0.10;0.10;;;3.60;99.90;;;;;;5103615;27;20107;-81
2023/03/16 05:59:27;;;;;;;0.10;0.10;;;3.70;99.90;;;;;;5101297;28;20027;-80
2023/03/16 06:01:53;;;;;;;0.20;0.20;;;3.60;99.90;;;;;;5104888;27;20027;-80
2023/03/16 06:04:18;;;;;;;0.10;0.10;;;3.50;99.90;;;;;;5082045;28;20143;-81
2023/03/16 06:06:44;;;;;;;0.00;0.00;;;3.60;99.90;;;;;;5097130;28;20039;-83
2023/03/16 06:09:10;;;;;;;0.10;0.10;;;3.70;99.90;;;;;;5101489;28;20050;-82
2023/03/16 06:11:35;;;;;;;0.28;0.28;;;3.60;99.90;;;;;;5100762;28;20196;-81
2023/03/16 06:14:01;;;;;;;1.85;0.50;;;3.60;99.90;;;;;;5090389;28;20035;-81
2023/03/16 06:16:27;;;;;;;0.10;0.10;;;3.80;99.90;;;;;;5073421;28;20510;-82
2023/03/16 06:18:54;;;;;;;0.10;0.10;;;3.90;99.90;;;;;;5098638;28;20559;-82
2023/03/16 06:21:19;;;;;;;0.40;0.40;;;4.00;99.90;;;;;;5083726;28;20859;-81
2023/03/16 06:23:45;;;;;;;0.00;0.00;;;3.90;99.90;;;;;;5097744;28;20040;-81
2023/03/16 06:26:11;;;;;;;0.20;0.20;;;4.00;99.90;;;;;;5077564;28;20023;-81
2023/03/16 06:28:36;;;;;;;0.30;0.30;;;4.10;99.90;;;;;;5090671;28;20040;-83
2023/03/16 06:31:02;;;;;;;0.00;0.00;;;4.10;99.90;;;;;;5092337;28;20513;-83
2023/03/16 06:33:28;;;;;;;0.10;0.10;;;4.20;99.90;;;;;;5082344;28;20031;-82
2023/03/16 06:35:53;;;;;;;0.30;0.30;;;4.50;99.90;;;;;;5092922;28;20023;-85
2023/03/16 06:38:19;;;;;;;0.10;0.10;;;4.80;99.90;;;;;;5087990;28;20130;-85
2023/03/16 06:40:50;;;;;;;0.25;0.25;;;5.40;99.90;;;;;;5086141;28;20622;-85
2023/03/16 06:43:15;;;;;;;0.10;0.10;;;5.80;99.70;;;;;;5103600;28;20023;-83
2023/03/16 06:45:42;;;;;;;0.40;0.40;;;6.20;98.70;;;;;;5102450;28;20047;-82
2023/03/16 06:48:08;;;;;;;0.13;0.13;;;6.60;97.20;;;;;;5103810;28;20109;-82
2023/03/16 06:50:34;;;;;;;0.50;0.50;;;6.70;96.60;;;;;;5103584;28;20028;-82
2023/03/16 06:53:00;;;;;;;0.10;0.10;;;6.70;96.90;;;;;;5103596;28;20030;-82
2023/03/16 06:55:26;;;;;;;0.35;0.35;;;6.60;97.20;;;;;;5085468;28;20266;-81
2023/03/16 06:57:51;;;;;;;0.10;0.10;;;6.80;96.70;;;;;;5102292;28;20031;-81
2023/03/16 07:00:18;;;;;;;0.30;0.30;;;7.20;96.00;;;;;;5102712;28;20028;-81
2023/03/16 07:02:43;;;;;;;0.93;0.90;;;7.70;94.80;;;;;;5081448;28;20570;-82
2023/03/16 07:05:12;;;;;;;0.10;0.10;;;8.40;93.20;;;;;;5093093;28;20039;-82
2023/03/16 07:07:41;;;;;;;0.10;0.10;;;8.80;92.20;;;;;;5086452;28;20042;-83
2023/03/16 07:10:10;;;;;;;0.10;0.10;;;9.30;91.10;;;;;;5102061;28;20020;-83
2023/03/16 07:12:36;;;;;;;0.10;0.10;;;9.20;90.50;;;;;;5086052;28;20027;-84
2023/03/16 07:15:02;;;;;;;0.20;0.20;;;9.20;91.30;;;;;;5083598;28;20424;-83
2023/03/16 07:17:28;;;;;;;0.10;0.10;;;9.10;91.00;;;;;;5086389;28;20521;-83
2023/03/16 07:19:53;;;;;;;0.30;0.30;;;9.40;90.50;;;;;;5095043;28;20047;-83
2023/03/16 07:22:20;;;;;;;0.10;0.10;;;9.80;90.00;;;;;;5088295;28;20219;-83
2023/03/16 07:24:50;;;;;;;0.10;0.10;;;9.70;89.10;;;;;;5099109;28;20828;-82
2023/03/16 07:27:16;;;;;;;0.10;0.10;;;10.10;88.20;;;;;;5092969;28;20043;-81
2023/03/16 07:29:42;;;;;;;0.35;0.35;;;10.30;86.30;;;;;;5073888;28;20030;-86
2023/03/16 07:32:08;;;;;;;0.10;0.10;;;10.40;87.40;;;;;;5085188;28;20745;-85
2023/03/16 07:34:34;;;;;;;0.17;0.17;;;10.50;85.20;;;;;;5102953;28;20058;-83
2023/03/16 07:36:59;;;;;;;0.00;0.00;;;10.60;85.20;;;;;;5101517;28;20027;-85
2023/03/16 07:39:27;;;;;;;0.15;0.15;;;10.60;86.30;;;;;;5101530;28;20713;-84
2023/03/16 07:41:53;;;;;;;0.10;0.10;;;10.70;85.50;;;;;;5084975;28;20092;-84
2023/03/16 07:44:19;;;;;;;0.00;0.00;;;10.70;84.00;;;;;;5103433;28;20410;-83
2023/03/16 07:46:44;;;;;;;0.17;0.17;;;10.90;82.90;;;;;;5100028;28;20035;-85
2023/03/16 07:49:11;;;;;;;0.20;0.20;;;11.10;81.80;;;;;;5081581;28;20126;-85
2023/03/16 07:51:36;;;;;;;0.32;0.32;;;11.30;82.10;;;;;;5098678;28;20028;-85
2023/03/16 07:54:03;;;;;;;1.30;1.10;;;11.60;81.00;;;;;;5079663;28;20510;-85
2023/03/16 07:56:28;;;;;;;0.10;0.10;;;11.60;79.60;;;;;;5084749;28;20023;-85
2023/03/16 07:58:54;;;;;;;0.00;0.00;;;12.10;80.50;;;;;;5078763;28;20372;-82
2023/03/16 08:01:21;;;;;;;0.03;0.03;;;12.40;80.40;;;;;;5081166;28;20027;-84
2023/03/16 08:03:47;;;;;;;0.00;0.00;;;13.10;78.30;;;;;;5095201;28;20070;-84
2023/03/16 08:06:12;;;;;;;0.00;0.00;;;13.60;76.00;;;;;;5093268;28;20566;-85
2023/03/16 08:08:38;;;;;;;0.00;0.00;;;13.40;74.60;;;;;;5087848;28;20036;-85
2023/03/16 08:11:04;;;;;;;0.00;0.00;;;13.60;75.60;;;;;;5100417;28;20844;-85
2023/03/16 08:13:29;;;;;;;0.40;0.40;;;13.40;73.60;;;;;;5094352;28;20732;-83
2023/03/16 08:15:57;;;;;;;0.10;0.10;;;14.10;74.40;;;;;;5098486;28;20024;-86
2023/03/16 08:18:24;;;;;;;0.20;0.20;;;14.20;72.30;;;;;;5092928;28;20011;-87
2023/03/16 08:20:51;;;;;;;0.70;0.65;;;14.40;71.60;;;;;;5089161;28;20032;-86
2023/03/16 08:23:16;;;;;;;0.90;0.90;;;14.50;70.50;;;;;;5103428;28;20040;-85
2023/03/16 08:25:42;;;;;;;1.10;0.67;;;14.30;70.10;;;;;;5083041;28;20118;-86
2023/03/16 08:28:09;;;;;;;0.03;0.03;;;14.80;68.70;;;;;;5099310;28;20049;-85
2023/03/16 08:30:35;;;;;;;0.03;0.03;;;14.80;68.70;;;;;;5089905;28;20294;-84
2023/03/16 08:33:02;;;;;;;0.00;0.00;;;15.10;69.00;;;;;;5102106;28;20028;-86
2023/03/16 08:35:28;;;;;;;0.00;0.00;;;15.60;67.40;;;;;;5080791;28;20028;-86
2023/03/16 08:37:55;;;;;;;0.00;0.00;;;15.90;67.20;;;;;;5076401;28;20020;-83
2023/03/16 08:40:21;;;;;;;0.22;0.22;;;16.50;69.20;;;;;;5084136;28;20028;-85
2023/03/16 08:42:51;;;;;;;0.70;0.70;;;16.60;65.50;;;;;;5080224;28;20039;-86
2023/03/16 08:45:18;;;;;;;0.00;0.00;;;16.40;64.60;;;;;;5083944;28;20031;-86
2023/03/16 08:47:44;;;;;;;3.40;0.63;;;17.10;66.70;;;;;;5070515;28;20042;-84
2023/03/16 08:50:12;;;;;;;0.00;0.00;;;17.00;64.80;;;;;;5101218;28;20028;-86
2023/03/16 08:52:37;;;;;;;0.00;0.00;;;17.70;63.60;;;;;;5100501;28;20023;-85
2023/03/16 08:55:05;;;;;;;0.00;0.00;;;17.90;62.90;;;;;;5069204;28;20035;-86
2023/03/16 08:57:32;;;;;;;0.90;0.45;;;18.10;63.20;;;;;;5095715;28;20039;-85
2023/03/16 08:59:58;;;;;;;0.00;0.00;;;18.10;60.20;;;;;;5105554;28;20028;-85
2023/03/16 09:02:24;;;;;;;0.10;0.10;;;17.80;61.50;;;;;;5099286;28;20051;-84
2023/03/16 09:04:51;;;;;;;0.00;0.00;;;18.50;62.20;;;;;;5087742;28;20092;-86
2023/03/16 09:07:17;;;;;;;;;;;18.90;62.00;;;;;;5077255;28;20363;-84
2023/03/16 09:09:44;;;;;;;0.38;0.38;;;18.90;60.90;;;;;;5101788;28;20394;-86
2023/03/16 09:12:11;;;;;;;0.00;0.00;;;19.00;64.50;;;;;;5079946;28;20035;-83
2023/03/16 09:14:37;;;;;;;0.10;0.08;;;19.20;59.90;;;;;;5075067;28;20028;-86
2023/03/16 09:17:04;;;;;;;0.00;0.00;;;19.20;59.70;;;;;;5094003;28;20031;-85
2023/03/16 09:19:30;;;;;;;;;;;19.40;60.90;;;;;;5100334;28;20031;-84
2023/03/16 09:21:57;;;;;;;0.20;0.20;;;19.40;60.00;;;;;;5097306;28;20030;-85
2023/03/16 09:24:25;;;;;;;0.00;0.00;;;19.10;61.80;;;;;;5073459;28;20023;-86
2023/03/16 09:26:51;;;;;;;6.82;1.23;;;19.70;62.20;;;;;;5105246;28;20049;-86
2023/03/16 09:29:17;;;;;;;0.10;0.10;;;19.80;61.00;;;;;;5099018;28;20818;-86
2023/03/16 09:31:44;;;;;;;0.00;0.00;;;19.90;58.10;;;;;;5104730;28;20440;-86
2023/03/16 09:34:10;;;;;;;0.55;0.55;;;20.50;57.60;;;;;;5103560;28;20111;-83
2023/03/16 09:36:36;;;;;;;0.10;0.10;;;20.10;56.90;;;;;;5102341;28;20632;-85
2023/03/16 09:39:03;;;;;;;0.10;0.10;;;20.10;55.50;;;;;;5083558;28;20042;-86
2023/03/16 09:41:43;;;;;;;0.10;0.10;;;20.90;57.70;;;;;;5091812;28;20028;-86
2023/03/16 09:44:09;;;;;;;0.10;0.10;;;21.30;55.50;;;;;;5089999;28;20027;-83
2023/03/16 09:46:47;;;;;;;0.43;0.43;;;20.80;53.60;;;;;;5078221;28;20026;-86
2023/03/16 09:49:17;;;;;;;1.20;0.75;;;21.20;52.60;;;;;;5099341;28;20581;-86
2023/03/16 09:51:58;;;;;;;0.63;0.63;;;21.20;50.10;;;;;;5094889;28;20031;-87
2023/03/16 09:54:41;;;;;;;0.00;0.00;;;20.50;49.60;;;;;;5100582;28;20034;-83
2023/03/16 09:57:19;;;;;;;0.00;0.00;;;21.10;48.00;;;;;;5087626;28;20132;-86
2023/03/16 09:59:46;;;;;;;0.00;0.00;;;21.20;49.00;;;;;;5082092;28;20047;-86
2023/03/16 10:02:41;;;;;;;0.08;0.08;;;20.80;47.90;;;;;;5088986;28;20028;-85
2023/03/16 10:05:10;;;;;;;0.00;0.00;;;19.60;47.00;;;;;;5051403;28;20135;-85
2023/03/16 10:07:47;;;;;;;0.00;0.00;;;19.70;48.60;;;;;;5073042;28;20490;-86
2023/03/16 10:10:13;;;;;;;0.25;0.25;;;19.60;48.10;;;;;;5093442;28;20016;-86
2023/03/16 10:12:44;;;;;;;0.00;0.00;;;18.90;51.00;;;;;;5099731;28;20020;-86
2023/03/16 10:15:19;;;;;;;0.22;0.22;;;18.90;49.90;;;;;;5080241;28;20024;-84
2023/03/16 10:18:13;;;;;;;0.10;0.10;;;18.90;51.30;;;;;;5076894;28;20394;-85
2023/03/16 10:20:40;;;;;;;0.03;0.03;;;18.40;49.20;;;;;;5067682;28;20266;-86
2023/03/16 10:23:20;;;;;;;0.20;0.20;;;19.00;50.80;;;;;;5103668;28;20031;-85
2023/03/16 10:25:51;;;;;;;0.00;0.00;;;18.40;49.60;;;;;;5074148;28;20024;-85
2023/03/16 10:28:23;;;;;;;0.00;0.00;;;18.60;48.70;;;;;;5083700;28;20036;-85
2023/03/16 10:30:52;;;;;;;0.22;0.22;;;18.30;48.50;;;;;;5102594;28;20153;-86
2023/03/16 10:33:20;;;;;;;3.25;0.95;;;18.30;48.10;;;;;;5078611;28;20399;-86
2023/03/16 10:35:52;;;;;;;0.00;0.00;;;18.20;49.50;;;;;;5096997;28;20023;-85
2023/03/16 10:38:41;;;;;;;0.00;0.00;;;18.40;52.40;;;;;;5103395;28;20023;-86
2023/03/16 10:41:22;;;;;;;0.00;0.00;;;18.20;49.20;;;;;;5083030;28;20045;-87
2023/03/16 10:43:56;;;;;;;0.00;0.00;;;18.10;49.90;;;;;;5083702;28;20020;-85
2023/03/16 10:46:24;;;;;;;0.00;0.00;;;18.30;50.80;;;;;;5098427;28;20043;-86
2023/03/16 10:48:53;;;;;;;0.10;0.10;;;18.30;53.80;;;;;;5074809;28;20063;-86
2023/03/16 10:51:25;;;;;;;0.00;0.00;;;18.50;55.50;;;;;;5100779;28;20032;-85
2023/03/16 10:53:51;;;;;;;0.00;0.00;;;18.40;52.40;;;;;;5092686;28;20021;-87
2023/03/16 10:56:24;;;;;;;0.00;0.00;;;18.50;49.00;;;;;;5098208;28;20181;-86
2023/03/16 10:58:50;;;;;;;0.00;0.00;;;18.50;47.50;;;;;;5079558;28;20038;-83
2023/03/16 11:01:23;;;;;;;0.00;0.00;;;18.40;49.00;;;;;;5089696;28;20104;-84
2023/03/16 11:03:51;;;;;;;0.10;0.10;;;18.30;49.60;;;;;;5070289;28;20121;-85
2023/03/16 11:06:21;;;;;;;0.10;0.10;;;18.40;48.50;;;;;;5096469;28;20865;-85
2023/03/16 11:08:47;;;;;;;0.00;0.00;;;18.30;49.30;;;;;;5094590;28;20036;-86
2023/03/16 11:11:20;;;;;;;0.00;0.00;;;18.40;51.80;;;;;;5103896;28;20020;-86
2023/03/16 11:13:47;;;;;;;0.00;0.00;;;18.30;50.70;;;;;;5074528;28;20430;-86
2023/03/16 11:16:47;;;;;;;0.00;0.00;;;18.40;48.10;;;;;;5075265;28;20719;-84
2023/03/16 11:19:31;;;;;;;0.10;0.10;;;18.30;49.60;;;;;;5070667;28;20028;-86
2023/03/16 11:22:16;;;;;;;0.00;0.00;;;18.30;49.70;;;;;;5082912;28;20023;-86
2023/03/16 11:24:56;;;;;;;0.00;0.00;;;18.40;49.10;;;;;;5068635;28;20049;-86
2023/03/16 11:27:23;;;;;;;0.00;0.00;;;18.20;48.10;;;;;;5080015;28;20070;-86
2023/03/16 11:29:58;;;;;;;0.15;0.15;;;18.30;51.80;;;;;;5081062;28;20072;-86
2023/03/16 11:32:32;;;;;;;0.00;0.00;;;18.10;48.40;;;;;;5083882;28;20027;-84
2023/03/16 11:34:59;;;;;;;0.00;0.00;;;18.00;48.50;;;;;;5084342;28;20510;-85
2023/03/16 11:37:24;;;;;;;;;;;18.10;48.10;;;;;;5102517;28;20475;-83
2023/03/16 11:40:18;;;;;;;0.00;0.00;;;18.10;50.70;;;;;;5100888;28;19956;-86
2023/03/16 11:42:51;;;;;;;0.00;0.00;;;18.10;48.10;;;;;;5080078;28;20118;-84
2023/03/16 11:45:47;;;;;;;0.00;0.00;;;18.20;48.80;;;;;;5103820;28;20024;-86
2023/03/16 11:48:36;;;;;;;0.15;0.15;;;18.00;49.40;;;;;;5088870;28;20558;-87
2023/03/16 11:51:29;;;;;;;1.55;0.40;;;18.00;50.80;;;;;;5074417;28;20036;-85
2023/03/16 11:54:12;;;;;;;0.40;0.40;;;18.10;50.90;;;;;;5083108;28;20028;-85
2023/03/16 11:56:51;;;;;;;0.10;0.10;;;18.00;49.70;;;;;;5094295;28;20024;-87
2023/03/16 11:59:55;;;;;;;0.40;0.40;;;17.90;49.40;;;;;;5092358;28;20016;-85
2023/03/16 12:03:09;;;;;;;0.10;0.10;;;17.80;48.70;;;;;;5073054;28;20035;-86
2023/03/16 12:05:49;;;;;;;0.00;0.00;;;17.90;49.10;;;;;;5078276;27;20658;-83
2023/03/16 12:08:46;;;;;;;0.20;0.20;;;17.80;49.00;;;;;;5090514;28;20056;-85
2023/03/16 12:11:25;;;;;;;0.00;0.00;;;17.90;49.60;;;;;;5091920;28;20908;-86
2023/03/16 12:14:14;;;;;;;0.00;0.00;;;18.00;50.60;;;;;;5079195;28;20030;-86
2023/03/16 12:16:56;;;;;;;0.00;0.00;;;18.10;49.60;;;;;;5069072;28;20566;-85
2023/03/16 12:19:31;;;;;;;0.00;0.00;;;18.20;53.00;;;;;;5068242;28;20030;-84
2023/03/16 12:22:15;;;;;;;0.00;0.00;;;18.20;50.00;;;;;;5094262;28;20023;-85
2023/03/16 12:24:44;;;;;;;0.00;0.00;;;18.10;50.80;;;;;;5068245;28;20518;-85
2023/03/16 12:27:37;;;;;;;0.00;0.00;;;18.10;49.00;;;;;;5095400;28;20457;-85
2023/03/16 12:30:16;;;;;;;0.00;0.00;;;18.30;52.70;;;;;;5094353;28;20035;-86
2023/03/16 12:33:08;;;;;;;0.20;0.20;;;18.10;52.60;;;;;;5091739;28;20024;-86
2023/03/16 12:36:03;;;;;;;0.17;0.17;;;18.20;49.30;;;;;;5100508;28;20041;-83
2023/03/16 12:38:29;;;;;;;2.20;0.65;;;18.10;49.80;;;;;;5098428;28;20889;-86
2023/03/16 12:41:06;;;;;;;0.00;0.00;;;18.30;48.70;;;;;;5071625;28;20028;-84
2023/03/16 12:44:11;;;;;;;0.10;0.10;;;18.20;50.20;;;;;;5098612;28;20026;-85
2023/03/16 12:47:02;;;;;;;2.20;0.52;;;18.20;48.10;;;;;;5080853;28;20039;-86
2023/03/16 12:49:33;;;;;;;0.08;0.08;;;18.10;49.00;;;;;;5078812;28;20066;-86
2023/03/16 12:52:05;;;;;;;0.00;0.00;;;18.10;50.80;;;;;;5083104;28;20028;-85
2023/03/16 12:54:32;;;;;;;0.00;0.00;;;18.10;50.00;;;;;;5082213;28;20027;-85
2023/03/16 12:57:05;;;;;;;0.88;0.55;;;18.10;51.00;;;;;;5076404;28;20114;-86
2023/03/16 12:59:43;;;;;;;0.00;0.00;;;18.20;51.80;;;;;;5096658;28;20031;-86
2023/03/16 13:02:23;;;;;;;0.22;0.22;;;18.30;50.00;;;;;;5081825;28;20123;-86
2023/03/16 13:04:58;;;;;;;0.08;0.08;;;18.30;53.00;;;;;;5076267;28;20081;-84
2023/03/16 13:07:30;;;;;;;0.00;0.00;;;18.30;52.30;;;;;;5085633;28;20965;-85